createdAt,value
2023-03-19T00:01:04.816Z,11.40
2023-03-19T00:03:42.772Z,11.10
2023-03-19T00:06:10.927Z,12.40
2023-03-19T00:08:39.129Z,12.80
2023-03-19T00:11:09.417Z,12.90
2023-03-19T00:13:37.525Z,12.80
2023-03-19T00:16:07.253Z,13.80
2023-03-19T00:18:35.497Z,12.70
2023-03-19T00:21:03.939Z,12.00
2023-03-19T00:23:32.038Z,12.10
2023-03-19T00:26:00.118Z,12.20
2023-03-19T00:28:28.510Z,12.70
2023-03-19T00:30:57.402Z,12.80
2023-03-19T00:33:26.645Z,11.90
2023-03-19T00:35:55.733Z,12.10
2023-03-19T00:38:24.185Z,12.60
2023-03-19T00:40:52.311Z,14.10
2023-03-19T00:43:20.464Z,13.60
2023-03-19T00:45:48.648Z,14.10
2023-03-19T00:48:17.488Z,12.60
2023-03-19T00:50:45.790Z,12.10
2023-03-19T00:53:14.101Z,12.40
2023-03-19T00:55:42.372Z,13.90
2023-03-19T00:58:10.966Z,13.40
2023-03-19T01:00:40.073Z,13.60
2023-03-19T01:03:08.194Z,12.90
2023-03-19T01:08:04.729Z,14.00
2023-03-19T01:10:34.872Z,12.20
2023-03-19T01:13:03.496Z,13.50
2023-03-19T01:15:38.859Z,12.70
2023-03-19T01:18:07.876Z,13.50
2023-03-19T01:20:38.050Z,13.60
2023-03-19T01:23:07.167Z,13.30
2023-03-19T01:25:35.729Z,15.00
2023-03-19T01:28:06.062Z,14.60
2023-03-19T01:30:34.416Z,15.50
2023-03-19T01:33:22.555Z,14.90
2023-03-19T01:36:03.212Z,15.70
2023-03-19T01:38:38.223Z,14.80
2023-03-19T01:41:10.699Z,16.90
2023-03-19T01:43:39.144Z,15.50
2023-03-19T01:46:37.750Z,15.90
2023-03-19T01:49:31.889Z,16.40
2023-03-19T01:52:16.917Z,13.60
2023-03-19T01:55:09.452Z,16.90
2023-03-19T01:57:51.258Z,16.90
2023-03-19T02:00:51.432Z,17.20
2023-03-19T02:03:19.623Z,15.50
2023-03-19T02:06:12.325Z,14.60
2023-03-19T02:08:41.609Z,15.70
2023-03-19T02:11:10.621Z,15.90
2023-03-19T02:13:39.019Z,18.10
2023-03-19T02:16:07.659Z,16.30
2023-03-19T02:18:36.778Z,18.40
2023-03-19T02:21:12.136Z,18.20
2023-03-19T02:23:55.621Z,16.10
2023-03-19T02:26:36.972Z,16.80
2023-03-19T02:29:06.184Z,18.00
2023-03-19T02:31:36.538Z,18.00
2023-03-19T02:34:26.761Z,16.20
2023-03-19T02:37:00.090Z,17.30
2023-03-19T02:39:44.198Z,18.30
2023-03-19T02:42:14.833Z,20.70
2023-03-19T02:44:43.437Z,20.10
2023-03-19T02:47:12.151Z,19.10
2023-03-19T02:49:40.389Z,21.30
2023-03-19T02:52:08.977Z,19.80
2023-03-19T02:54:37.084Z,18.80
2023-03-19T02:57:05.598Z,18.60
2023-03-19T02:59:34.098Z,18.10
2023-03-19T03:02:02.648Z,18.60
2023-03-19T03:04:32.105Z,17.50
2023-03-19T03:07:00.978Z,17.20
2023-03-19T03:09:29.183Z,17.60
2023-03-19T03:11:57.315Z,18.00
2023-03-19T03:14:25.537Z,18.00
2023-03-19T03:16:53.644Z,16.80
2023-03-19T03:19:21.739Z,17.00
2023-03-19T03:21:49.865Z,18.80
2023-03-19T03:24:17.918Z,16.30
2023-03-19T03:26:46.322Z,15.10
2023-03-19T03:29:16.747Z,15.90
2023-03-19T03:31:44.899Z,13.30
2023-03-19T03:34:13.067Z,14.70
2023-03-19T03:36:41.193Z,16.60
2023-03-19T03:39:09.223Z,14.80
2023-03-19T03:41:37.615Z,15.20
2023-03-19T03:44:06.053Z,14.80
2023-03-19T03:46:35.412Z,15.60
2023-03-19T03:49:03.522Z,16.30
2023-03-19T03:51:32.943Z,16.30
2023-03-19T03:54:01.429Z,19.00
2023-03-19T03:56:29.690Z,16.20
2023-03-19T03:58:58.018Z,15.30
2023-03-19T04:01:26.067Z,16.00
2023-03-19T04:03:54.807Z,16.80
2023-03-19T04:06:25.111Z,16.50
2023-03-19T04:09:17.239Z,17.10
2023-03-19T04:11:45.640Z,16.30
2023-03-19T04:14:13.913Z,15.10
2023-03-19T04:16:44.166Z,16.10
2023-03-19T04:19:12.398Z,13.80
2023-03-19T04:21:40.496Z,14.40
2023-03-19T04:24:10.582Z,13.50
2023-03-19T04:26:39.048Z,13.80
2023-03-19T04:29:08.812Z,13.80
2023-03-19T04:31:37.070Z,13.30
2023-03-19T04:34:05.907Z,13.70
2023-03-19T04:36:34.078Z,13.50
2023-03-19T04:39:02.228Z,12.00
2023-03-19T04:41:30.550Z,11.60
2023-03-19T04:44:06.370Z,13.80
2023-03-19T04:46:35.467Z,13.90
2023-03-19T04:49:03.759Z,12.10
2023-03-19T04:51:32.559Z,12.40
2023-03-19T04:54:00.985Z,12.60
2023-03-19T04:56:29.273Z,13.30
2023-03-19T04:58:57.419Z,13.20
2023-03-19T05:01:25.608Z,12.00
2023-03-19T05:04:02.406Z,14.00
2023-03-19T05:06:32.242Z,14.20
2023-03-19T05:09:00.863Z,13.10
2023-03-19T05:11:28.892Z,14.80
2023-03-19T05:14:16.230Z,14.20
2023-03-19T05:17:04.859Z,17.50
2023-03-19T05:19:43.969Z,15.20
2023-03-19T05:22:12.088Z,12.70
2023-03-19T05:24:40.381Z,13.10
2023-03-19T05:27:09.262Z,14.70
2023-03-19T05:30:13.053Z,13.80
2023-03-19T05:33:00.118Z,15.90
2023-03-19T05:35:41.029Z,15.00
2023-03-19T05:38:29.396Z,14.60
2023-03-19T05:41:05.161Z,11.50
2023-03-19T05:44:05.852Z,12.80
2023-03-19T05:46:57.355Z,15.00
2023-03-19T05:49:27.690Z,12.80
2023-03-19T05:51:55.824Z,14.80
2023-03-19T05:54:24.812Z,16.00
2023-03-19T05:57:05.198Z,13.20
2023-03-19T05:59:40.230Z,12.60
2023-03-19T06:02:20.892Z,11.60
2023-03-19T06:04:49.524Z,11.20
2023-03-19T06:07:18.895Z,9.30
2023-03-19T06:09:47.129Z,12.20
2023-03-19T06:12:16.477Z,11.90
2023-03-19T06:14:44.773Z,11.80
2023-03-19T06:17:45.008Z,12.70
2023-03-19T06:20:14.042Z,12.80
2023-03-19T06:22:43.705Z,10.50
2023-03-19T06:25:12.151Z,13.30
2023-03-19T06:27:40.355Z,13.10
2023-03-19T06:30:19.350Z,12.20
2023-03-19T06:32:47.649Z,12.40
2023-03-19T06:35:15.893Z,12.40
2023-03-19T06:37:45.328Z,11.40
2023-03-19T06:40:13.917Z,12.00
2023-03-19T06:42:45.918Z,10.30
2023-03-19T06:45:16.600Z,10.40
2023-03-19T06:47:45.504Z,9.30
2023-03-19T06:50:18.010Z,8.90
2023-03-19T06:52:46.714Z,8.40
2023-03-19T06:55:14.982Z,8.20
2023-03-19T06:57:43.267Z,8.30
2023-03-19T07:00:11.974Z,8.80
2023-03-19T07:02:40.318Z,7.80
2023-03-19T07:05:08.736Z,9.20
2023-03-19T07:07:37.050Z,7.90
2023-03-19T07:10:06.638Z,8.60
2023-03-19T07:12:34.824Z,8.00
2023-03-19T07:15:04.817Z,8.90
2023-03-19T07:17:32.884Z,7.00
2023-03-19T07:20:01.016Z,7.60
2023-03-19T07:22:29.135Z,7.60
2023-03-19T07:24:57.178Z,8.40
2023-03-19T07:27:25.400Z,8.10
2023-03-19T07:29:55.613Z,7.60
2023-03-19T07:32:23.671Z,8.00
2023-03-19T07:34:51.786Z,8.60
2023-03-19T07:37:22.390Z,7.40
2023-03-19T07:39:50.882Z,8.00
2023-03-19T07:42:19.075Z,7.00
2023-03-19T07:44:47.164Z,7.60
2023-03-19T07:47:27.992Z,7.80
2023-03-19T07:49:57.898Z,7.80
2023-03-19T07:52:27.075Z,7.00
2023-03-19T07:54:55.756Z,7.50
2023-03-19T07:57:25.476Z,7.90
2023-03-19T07:59:54.001Z,7.90
2023-03-19T08:02:23.556Z,8.80
2023-03-19T08:04:52.181Z,8.50
2023-03-19T08:07:20.677Z,8.00
2023-03-19T08:09:49.247Z,6.60
2023-03-19T08:12:17.443Z,7.40
2023-03-19T08:14:45.529Z,9.00
2023-03-19T08:17:13.663Z,8.00
2023-03-19T08:19:41.847Z,9.00
2023-03-19T08:22:10.778Z,7.80
2023-03-19T08:24:38.923Z,8.30
2023-03-19T08:27:08.124Z,7.10
2023-03-19T08:29:36.702Z,8.30
2023-03-19T08:32:05.024Z,8.80
2023-03-19T08:34:33.605Z,8.70
2023-03-19T08:37:02.331Z,7.90
2023-03-19T08:39:30.367Z,8.50
2023-03-19T08:41:58.509Z,8.30
2023-03-19T08:44:26.696Z,7.50
2023-03-19T08:46:54.900Z,8.30
2023-03-19T08:49:23.051Z,7.80
2023-03-19T08:51:51.427Z,7.90
2023-03-19T08:54:22.174Z,7.80
2023-03-19T08:56:51.360Z,7.90
2023-03-19T08:59:20.105Z,7.50
2023-03-19T09:01:52.976Z,7.30
2023-03-19T09:04:22.232Z,7.90
2023-03-19T09:06:53.414Z,7.50
2023-03-19T09:09:24.176Z,7.60
2023-03-19T09:11:52.214Z,7.00
2023-03-19T09:14:20.709Z,7.70
2023-03-19T09:16:49.257Z,7.00
2023-03-19T09:19:17.516Z,7.80
2023-03-19T09:21:46.412Z,6.40
2023-03-19T09:24:15.497Z,6.40
2023-03-19T09:26:43.504Z,7.50
2023-03-19T09:29:12.153Z,7.60
2023-03-19T09:31:40.336Z,6.80
2023-03-19T09:34:08.949Z,6.30
2023-03-19T09:36:37.961Z,6.90
2023-03-19T09:39:07.419Z,6.60
2023-03-19T09:41:49.707Z,6.40
2023-03-19T09:44:39.598Z,6.60
2023-03-19T09:47:28.932Z,5.80
2023-03-19T09:50:13.471Z,6.60
2023-03-19T09:52:56.603Z,6.40
2023-03-19T09:55:24.984Z,6.60
2023-03-19T09:57:55.577Z,6.70
2023-03-19T10:00:32.495Z,8.20
2023-03-19T10:03:12.282Z,8.10
2023-03-19T10:06:17.327Z,7.10
2023-03-19T10:08:51.933Z,6.90
2023-03-19T10:11:45.915Z,7.50
2023-03-19T10:14:35.630Z,7.10
2023-03-19T10:17:07.257Z,7.00
2023-03-19T10:19:43.175Z,7.50
2023-03-19T10:22:19.065Z,20.20
2023-03-19T10:24:49.758Z,10.40
2023-03-19T10:27:21.563Z,7.00
2023-03-19T10:29:49.758Z,6.30
2023-03-19T10:32:38.295Z,6.50
2023-03-19T10:35:16.956Z,5.70
2023-03-19T10:37:45.090Z,5.70
2023-03-19T10:40:45.361Z,6.00
2023-03-19T10:43:18.825Z,4.80
2023-03-19T10:45:49.163Z,6.00
2023-03-19T10:48:19.236Z,5.70
2023-03-19T10:51:00.251Z,5.00
2023-03-19T10:53:38.767Z,5.50
2023-03-19T10:56:20.773Z,5.70
2023-03-19T10:59:04.125Z,6.00
2023-03-19T11:01:39.169Z,5.60
2023-03-19T11:04:18.799Z,5.60
2023-03-19T11:06:52.117Z,5.50
2023-03-19T11:09:40.636Z,5.20
2023-03-19T11:12:43.204Z,5.00
2023-03-19T11:15:28.971Z,4.80
2023-03-19T11:17:59.557Z,5.80
2023-03-19T11:20:37.198Z,5.30
2023-03-19T11:23:17.135Z,5.40
2023-03-19T11:25:53.634Z,5.50
2023-03-19T11:28:26.442Z,5.20
2023-03-19T11:31:19.815Z,5.60
2023-03-19T11:33:54.453Z,5.30
2023-03-19T11:39:18.778Z,5.10
2023-03-19T11:42:22.411Z,5.10
2023-03-19T11:45:29.014Z,5.40
2023-03-19T11:48:06.099Z,5.10
2023-03-19T11:51:01.434Z,4.60
2023-03-19T11:54:09.807Z,5.10
2023-03-19T11:56:50.463Z,5.50
2023-03-19T11:59:49.748Z,5.40
2023-03-19T12:02:34.847Z,5.10
2023-03-19T12:05:15.584Z,6.40
2023-03-19T12:07:48.902Z,5.30
2023-03-19T12:10:29.425Z,4.90
2023-03-19T12:13:24.867Z,4.90
2023-03-19T12:18:54.329Z,5.30
2023-03-19T12:21:35.200Z,5.80
2023-03-19T12:24:31.886Z,4.60
2023-03-19T12:27:30.750Z,5.60
2023-03-19T12:30:12.269Z,5.30
2023-03-19T12:33:18.389Z,4.90
2023-03-19T12:35:50.447Z,5.60
2023-03-19T12:38:28.031Z,5.40
2023-03-19T12:41:12.699Z,4.90
2023-03-19T12:44:04.231Z,4.80
2023-03-19T12:46:44.264Z,5.10
2023-03-19T12:49:18.796Z,5.40
2023-03-19T12:51:54.171Z,4.90
2023-03-19T12:54:29.840Z,5.20
2023-03-19T12:57:07.664Z,5.40
2023-03-19T13:00:01.622Z,5.60
2023-03-19T13:02:48.858Z,5.40
2023-03-19T13:05:32.507Z,6.40
2023-03-19T13:08:27.752Z,5.10
2023-03-19T13:13:35.003Z,5.30
2023-03-19T13:18:59.098Z,5.00
2023-03-19T13:21:31.523Z,4.80
2023-03-19T13:24:28.520Z,9.00
2023-03-19T13:27:01.333Z,8.80
2023-03-19T13:29:31.928Z,8.20
2023-03-19T13:32:08.369Z,9.70
2023-03-19T13:34:38.481Z,5.20
2023-03-19T13:37:15.853Z,4.80
2023-03-19T13:39:46.385Z,5.90
2023-03-19T13:42:20.354Z,5.30
2023-03-19T13:45:03.599Z,5.50
2023-03-19T13:47:32.850Z,5.50
2023-03-19T13:50:16.052Z,4.60
2023-03-19T13:52:44.979Z,4.90
2023-03-19T13:55:28.380Z,5.50
2023-03-19T13:58:12.370Z,5.00
2023-03-19T14:00:46.900Z,6.10
2023-03-19T14:03:23.040Z,6.10
2023-03-19T14:05:54.866Z,14.10
2023-03-19T14:08:27.605Z,6.10
2023-03-19T14:10:59.553Z,6.30
2023-03-19T14:13:32.473Z,6.10
2023-03-19T14:16:08.260Z,6.60
2023-03-19T14:18:41.188Z,5.40
2023-03-19T14:21:17.004Z,5.30
2023-03-19T14:23:57.697Z,5.20
2023-03-19T14:26:29.491Z,7.50
2023-03-19T14:29:01.987Z,6.30
2023-03-19T14:31:39.018Z,4.90
2023-03-19T14:34:42.352Z,5.40
2023-03-19T14:37:39.571Z,4.80
2023-03-19T14:40:21.387Z,5.80
2023-03-19T14:43:20.413Z,5.60
2023-03-19T14:45:57.758Z,6.20
2023-03-19T14:48:54.054Z,4.70
2023-03-19T14:51:22.089Z,6.20
2023-03-19T14:53:59.070Z,6.10
2023-03-19T14:56:32.942Z,5.00
2023-03-19T14:59:04.244Z,5.70
2023-03-19T15:01:38.606Z,5.60
2023-03-19T15:04:11.074Z,5.30
2023-03-19T15:06:46.684Z,4.90
2023-03-19T15:09:18.214Z,4.70
2023-03-19T15:11:49.098Z,5.50
2023-03-19T15:14:57.840Z,4.80
2023-03-19T15:17:28.752Z,5.70
2023-03-19T15:20:00.955Z,5.50
2023-03-19T15:22:28.944Z,4.70
2023-03-19T15:25:12.486Z,5.30
2023-03-19T15:27:42.360Z,5.50
2023-03-19T15:30:22.315Z,5.60
2023-03-19T15:33:04.344Z,6.10
2023-03-19T15:35:36.783Z,5.90
2023-03-19T15:38:10.748Z,6.60
2023-03-19T15:40:41.931Z,6.40
2023-03-19T15:43:12.741Z,6.00
2023-03-19T15:45:46.098Z,6.00
2023-03-19T15:48:33.065Z,5.80
2023-03-19T15:51:04.268Z,5.60
2023-03-19T15:53:34.397Z,7.90
2023-03-19T15:56:04.562Z,7.90
2023-03-19T15:58:39.712Z,6.50
2023-03-19T16:01:10.006Z,6.70
2023-03-19T16:03:44.290Z,7.10
2023-03-19T16:06:33.139Z,7.30
2023-03-19T16:09:19.336Z,9.40
2023-03-19T16:11:47.609Z,15.30
2023-03-19T16:14:17.193Z,13.30
2023-03-19T16:16:47.118Z,10.20
2023-03-19T16:19:50.814Z,9.30
2023-03-19T16:22:31.428Z,8.20
2023-03-19T16:25:02.046Z,9.40
2023-03-19T16:27:41.093Z,10.00
2023-03-19T16:30:25.323Z,9.60
2023-03-19T16:33:01.793Z,12.60
2023-03-19T16:35:33.484Z,13.00
2023-03-19T16:38:13.219Z,12.10
2023-03-19T16:40:47.836Z,12.50
2023-03-19T16:43:34.512Z,12.90
2023-03-19T16:46:12.373Z,12.50
2023-03-19T16:48:40.714Z,11.50
2023-03-19T16:51:18.356Z,11.90
2023-03-19T16:53:48.335Z,14.00
2023-03-19T16:56:18.877Z,14.40
2023-03-19T16:58:48.390Z,16.40
2023-03-19T17:01:20.237Z,15.30
2023-03-19T17:03:49.863Z,15.90
2023-03-19T17:06:20.686Z,15.80
2023-03-19T17:08:48.919Z,14.60
2023-03-19T17:11:43.052Z,15.50
2023-03-19T17:14:19.914Z,17.90
2023-03-19T17:16:50.731Z,15.60
2023-03-19T17:19:22.210Z,18.10
2023-03-19T17:21:53.582Z,13.70
2023-03-19T17:24:32.426Z,12.50
2023-03-19T17:27:04.398Z,14.30
2023-03-19T17:29:33.277Z,26.60
2023-03-19T17:32:02.552Z,32.60
2023-03-19T17:34:32.069Z,29.40
2023-03-19T17:37:02.285Z,34.00
2023-03-19T17:39:31.439Z,70.90
2023-03-19T17:42:00.006Z,78.30
2023-03-19T17:44:28.398Z,82.40
2023-03-19T17:46:57.073Z,86.60
2023-03-19T17:49:31.802Z,82.20
2023-03-19T17:52:00.297Z,80.50
2023-03-19T17:54:28.651Z,77.50
2023-03-19T17:56:56.919Z,62.90
2023-03-19T17:59:25.312Z,55.40
2023-03-19T18:01:53.404Z,54.30
2023-03-19T18:04:25.853Z,45.00
2023-03-19T18:06:55.978Z,42.30
2023-03-19T18:09:28.546Z,44.10
2023-03-19T18:11:56.789Z,63.00
2023-03-19T18:14:25.075Z,132.10
2023-03-19T18:16:53.421Z,169.30
2023-03-19T18:19:30.708Z,132.70
2023-03-19T18:21:59.285Z,86.10
2023-03-19T18:24:27.767Z,59.10
2023-03-19T18:26:55.909Z,50.20
2023-03-19T18:29:24.049Z,46.30
2023-03-19T18:31:52.339Z,43.90
2023-03-19T18:34:20.594Z,56.60
2023-03-19T18:36:48.816Z,85.30
2023-03-19T18:39:17.203Z,114.20
2023-03-19T18:41:45.334Z,91.30
2023-03-19T18:44:13.897Z,62.20
2023-03-19T18:46:42.301Z,57.70
2023-03-19T18:49:24.296Z,56.00
2023-03-19T18:52:04.101Z,54.10
2023-03-19T18:54:32.531Z,72.70
2023-03-19T18:57:02.060Z,76.70
2023-03-19T18:59:32.865Z,69.20
2023-03-19T19:02:25.436Z,50.40
2023-03-19T19:04:53.551Z,42.60
2023-03-19T19:07:21.756Z,51.00
2023-03-19T19:09:50.093Z,79.60
2023-03-19T19:12:19.045Z,93.20
2023-03-19T19:14:47.566Z,82.80
2023-03-19T19:17:24.075Z,82.40
2023-03-19T19:19:52.348Z,76.60
2023-03-19T19:22:20.590Z,74.60
2023-03-19T19:24:48.982Z,69.40
2023-03-19T19:27:20.148Z,90.90
2023-03-19T19:29:49.579Z,108.20
2023-03-19T19:32:26.466Z,97.80
2023-03-19T19:34:55.371Z,74.70
2023-03-19T19:37:23.869Z,52.50
2023-03-19T19:39:52.001Z,44.10
2023-03-19T19:42:22.143Z,37.80
2023-03-19T19:44:57.716Z,33.30
2023-03-19T19:47:27.806Z,31.80
2023-03-19T19:49:56.636Z,30.00
2023-03-19T19:52:24.717Z,29.90
2023-03-19T19:54:52.868Z,32.20
2023-03-19T19:57:24.720Z,31.00
2023-03-19T19:59:54.854Z,31.60
2023-03-19T20:02:31.181Z,30.80
2023-03-19T20:04:59.303Z,28.80
2023-03-19T20:07:27.629Z,28.80
2023-03-19T20:09:55.760Z,27.70
2023-03-19T20:12:28.047Z,27.00
2023-03-19T20:14:57.694Z,25.70
2023-03-19T20:17:27.360Z,27.30
2023-03-19T20:19:55.760Z,27.30
2023-03-19T20:22:23.896Z,28.10
2023-03-19T20:24:51.921Z,26.00
2023-03-19T20:27:30.505Z,29.20
2023-03-19T20:29:59.222Z,37.30
2023-03-19T20:32:33.051Z,46.40
2023-03-19T20:35:02.176Z,50.50
2023-03-19T20:37:30.769Z,42.90
2023-03-19T20:39:58.986Z,36.00
2023-03-19T20:42:30.686Z,32.00
2023-03-19T20:44:59.715Z,28.90
2023-03-19T20:47:29.048Z,29.60
2023-03-19T20:49:57.089Z,28.10
2023-03-19T20:52:25.979Z,27.30
2023-03-19T20:54:54.304Z,27.10
2023-03-19T20:57:31.021Z,26.00
2023-03-19T21:00:02.638Z,26.40
2023-03-19T21:02:31.186Z,28.40
2023-03-19T21:04:59.588Z,33.10
2023-03-19T21:07:33.653Z,29.50
2023-03-19T21:10:19.903Z,28.20
2023-03-19T21:12:48.072Z,26.80
2023-03-19T21:15:16.881Z,26.20
2023-03-19T21:17:45.069Z,25.20
2023-03-19T21:20:26.482Z,27.10
2023-03-19T21:23:01.866Z,29.70
2023-03-19T21:25:31.855Z,32.10
2023-03-19T21:28:04.446Z,35.80
2023-03-19T21:30:37.953Z,35.50
2023-03-19T21:33:06.701Z,33.60
2023-03-19T21:35:35.151Z,34.60
2023-03-19T21:38:03.476Z,36.30
2023-03-19T21:40:31.643Z,33.50
2023-03-19T21:43:02.898Z,33.10
2023-03-19T21:45:35.458Z,32.40
2023-03-19T21:48:31.223Z,33.60
2023-03-19T21:51:04.181Z,36.90
2023-03-19T21:53:32.844Z,32.90
2023-03-19T21:56:01.535Z,30.60
2023-03-19T21:58:35.379Z,34.00
2023-03-19T22:01:04.803Z,38.30
2023-03-19T22:03:34.338Z,27.20
2023-03-19T22:06:02.371Z,26.40
2023-03-19T22:08:30.632Z,24.30
2023-03-19T22:11:02.780Z,26.40
2023-03-19T22:13:34.264Z,25.90
2023-03-19T22:16:02.423Z,25.40
2023-03-19T22:18:30.491Z,25.50
2023-03-19T22:20:58.553Z,26.00
2023-03-19T22:23:26.676Z,28.20
2023-03-19T22:25:54.984Z,28.00
2023-03-19T22:28:34.013Z,28.80
2023-03-19T22:31:03.324Z,28.10
2023-03-19T22:33:31.656Z,27.70
2023-03-19T22:35:59.794Z,25.40
2023-03-19T22:38:27.979Z,26.70
2023-03-19T22:40:56.643Z,24.20
2023-03-19T22:43:33.708Z,23.40
2023-03-19T22:46:09.258Z,23.40
2023-03-19T22:48:38.665Z,24.00
2023-03-19T22:51:07.040Z,25.30
2023-03-19T22:53:36.976Z,25.70
2023-03-19T22:56:05.651Z,23.30
2023-03-19T22:58:33.758Z,24.90
2023-03-19T23:01:01.883Z,23.50
2023-03-19T23:03:30.946Z,24.70
2023-03-19T23:06:08.979Z,24.20
2023-03-19T23:08:38.606Z,25.50
2023-03-19T23:11:10.153Z,24.30
2023-03-19T23:13:38.252Z,23.30
2023-03-19T23:16:20.983Z,24.10
2023-03-19T23:18:49.841Z,23.50
2023-03-19T23:21:19.596Z,24.90
2023-03-19T23:23:47.697Z,23.70
2023-03-19T23:26:31.564Z,25.30
2023-03-19T23:29:05.803Z,24.60
2023-03-19T23:31:34.497Z,24.20
2023-03-19T23:34:02.904Z,24.10
2023-03-19T23:36:31.451Z,24.50
2023-03-19T23:38:59.537Z,32.10
2023-03-19T23:41:30.001Z,30.40
2023-03-19T23:44:02.118Z,27.30
2023-03-19T23:46:33.799Z,24.80
2023-03-19T23:49:01.922Z,25.70
2023-03-19T23:51:30.085Z,27.00
2023-03-19T23:53:58.165Z,25.40
2023-03-19T23:56:27.567Z,25.10
